createdAt,value
2017-10-19T00:00:17.484Z,0
2017-10-19T00:00:58.018Z,0
2017-10-19T00:01:38.555Z,0
2017-10-19T00:02:19.088Z,0
2017-10-19T00:02:59.627Z,0
2017-10-19T00:03:40.166Z,0
2017-10-19T00:04:20.699Z,0
2017-10-19T00:05:01.236Z,0
2017-10-19T00:05:41.761Z,0
2017-10-19T00:06:22.300Z,0
2017-10-19T00:07:02.828Z,0
2017-10-19T00:07:43.366Z,0
2017-10-19T00:08:23.903Z,0
2017-10-19T00:09:04.448Z,0
2017-10-19T00:09:44.978Z,0
2017-10-19T00:10:25.511Z,0
2017-10-19T00:11:06.036Z,0
2017-10-19T00:11:46.572Z,0
2017-10-19T00:12:27.106Z,0
2017-10-19T00:13:07.643Z,0
2017-10-19T00:13:48.176Z,0
2017-10-19T00:14:28.717Z,0
2017-10-19T00:15:09.251Z,0
2017-10-19T00:15:49.802Z,0
2017-10-19T00:16:30.342Z,0
2017-10-19T00:17:10.879Z,0
2017-10-19T00:17:51.420Z,0
2017-10-19T00:18:31.968Z,0
2017-10-19T00:19:12.495Z,0
2017-10-19T00:19:53.023Z,0
2017-10-19T00:20:33.562Z,0
2017-10-19T00:21:14.099Z,0
2017-10-19T00:21:54.638Z,0
2017-10-19T00:22:35.182Z,0
2017-10-19T00:23:15.717Z,0
2017-10-19T00:23:56.244Z,0
2017-10-19T00:24:36.775Z,0
2017-10-19T00:25:17.295Z,0
2017-10-19T00:25:57.842Z,0
2017-10-19T00:26:38.368Z,0
2017-10-19T00:27:18.896Z,0
2017-10-19T00:27:59.425Z,0
2017-10-19T00:28:39.947Z,0
2017-10-19T00:29:22.270Z,0
2017-10-19T00:30:02.791Z,0
2017-10-19T00:30:43.357Z,0
2017-10-19T00:31:23.897Z,0
2017-10-19T00:32:04.416Z,0
2017-10-19T00:32:44.954Z,0
2017-10-19T00:33:25.495Z,0
2017-10-19T00:34:06.021Z,0
2017-10-19T00:34:46.556Z,0
2017-10-19T00:35:27.116Z,0
2017-10-19T00:36:07.638Z,0
2017-10-19T00:36:48.179Z,0
2017-10-19T00:37:28.706Z,0
2017-10-19T00:38:09.236Z,0
2017-10-19T00:38:49.771Z,0
2017-10-19T00:39:30.305Z,0
2017-10-19T00:40:10.836Z,0
2017-10-19T00:40:51.395Z,0
2017-10-19T00:41:31.899Z,0
2017-10-19T00:42:12.432Z,0
2017-10-19T00:42:52.963Z,0
2017-10-19T00:43:33.502Z,0
2017-10-19T00:44:14.036Z,0
2017-10-19T00:44:54.564Z,0
2017-10-19T00:45:35.102Z,0
2017-10-19T00:46:15.641Z,0
2017-10-19T00:46:56.173Z,0
2017-10-19T00:47:36.701Z,0
2017-10-19T00:48:17.235Z,0
2017-10-19T00:48:57.778Z,0
2017-10-19T00:49:38.335Z,0
2017-10-19T00:50:18.846Z,0
2017-10-19T00:50:59.386Z,0
2017-10-19T00:51:39.923Z,0
2017-10-19T00:52:20.455Z,0
2017-10-19T00:53:00.997Z,0
2017-10-19T00:53:41.539Z,0
2017-10-19T00:54:22.082Z,0
2017-10-19T00:55:02.610Z,0
2017-10-19T00:55:43.145Z,0
2017-10-19T00:56:23.669Z,0
2017-10-19T00:57:04.206Z,0
2017-10-19T00:57:44.752Z,0
2017-10-19T00:58:25.278Z,0
2017-10-19T00:59:05.807Z,0
2017-10-19T00:59:46.335Z,0
2017-10-19T01:00:26.871Z,0
2017-10-19T01:01:07.406Z,0
2017-10-19T01:01:47.955Z,0
2017-10-19T01:02:28.495Z,0
2017-10-19T01:03:09.020Z,0
2017-10-19T01:03:49.548Z,0
2017-10-19T01:04:30.068Z,0
2017-10-19T01:05:10.612Z,0
2017-10-19T01:05:51.157Z,0
2017-10-19T01:06:31.697Z,0
2017-10-19T01:07:12.236Z,0
2017-10-19T01:07:52.765Z,0
2017-10-19T01:08:33.392Z,0
2017-10-19T01:09:13.967Z,0
2017-10-19T01:09:54.508Z,0
2017-10-19T01:10:35.063Z,0
2017-10-19T01:11:15.583Z,0
2017-10-19T01:11:56.126Z,0
2017-10-19T01:12:36.659Z,0
2017-10-19T01:13:17.200Z,0
2017-10-19T01:13:57.727Z,0
2017-10-19T01:14:38.264Z,0
2017-10-19T01:15:18.798Z,0
2017-10-19T01:15:59.336Z,0
2017-10-19T01:16:39.869Z,0
2017-10-19T01:17:20.403Z,0
2017-10-19T01:18:00.943Z,0
2017-10-19T01:18:41.473Z,0
2017-10-19T01:19:22.015Z,0
2017-10-19T01:20:02.549Z,0
2017-10-19T01:20:43.091Z,0
2017-10-19T01:21:23.625Z,0
2017-10-19T01:22:04.166Z,0
2017-10-19T01:22:44.709Z,0
2017-10-19T01:23:25.238Z,0
2017-10-19T01:24:05.773Z,0
2017-10-19T01:24:46.308Z,0
2017-10-19T01:25:26.837Z,0
2017-10-19T01:26:07.384Z,0
2017-10-19T01:26:47.919Z,0
2017-10-19T01:27:28.456Z,0
2017-10-19T01:28:08.989Z,0
2017-10-19T01:28:49.522Z,0
2017-10-19T01:29:30.060Z,0
2017-10-19T01:30:10.602Z,0
2017-10-19T01:30:51.136Z,0
2017-10-19T01:31:31.675Z,0
2017-10-19T01:32:12.253Z,0
2017-10-19T01:32:52.789Z,0
2017-10-19T01:33:33.335Z,0
2017-10-19T01:34:13.900Z,0
2017-10-19T01:34:54.399Z,0
2017-10-19T01:35:34.935Z,0
2017-10-19T01:36:15.485Z,0
2017-10-19T01:36:56.022Z,0
2017-10-19T01:37:36.548Z,0
2017-10-19T01:38:17.093Z,0
2017-10-19T01:38:57.627Z,0
2017-10-19T01:39:38.192Z,0
2017-10-19T01:40:18.709Z,0
2017-10-19T01:40:59.241Z,0
2017-10-19T01:41:39.775Z,0
2017-10-19T01:42:20.308Z,0
2017-10-19T01:43:00.850Z,0
2017-10-19T01:43:41.393Z,0
2017-10-19T01:44:21.927Z,0
2017-10-19T01:45:02.465Z,0
2017-10-19T01:45:42.989Z,0
2017-10-19T01:46:23.525Z,0
2017-10-19T01:47:04.066Z,0
2017-10-19T01:47:44.601Z,0
2017-10-19T01:48:25.144Z,0
2017-10-19T01:49:05.689Z,0
2017-10-19T01:49:46.205Z,0
2017-10-19T01:50:26.740Z,0
2017-10-19T01:51:07.275Z,0
2017-10-19T01:51:47.833Z,0
2017-10-19T01:52:28.448Z,0
2017-10-19T01:53:08.966Z,0
2017-10-19T01:53:49.491Z,0
2017-10-19T01:54:30.026Z,0
2017-10-19T01:55:10.561Z,0
2017-10-19T01:55:51.105Z,0
2017-10-19T01:56:31.625Z,0
2017-10-19T01:57:12.146Z,0
2017-10-19T01:57:52.675Z,0
2017-10-19T01:58:33.256Z,0
2017-10-19T01:59:13.918Z,0
2017-10-19T01:59:54.502Z,0
2017-10-19T02:00:35.032Z,0
2017-10-19T02:01:15.560Z,0
2017-10-19T02:01:56.094Z,0
2017-10-19T02:02:36.637Z,0
2017-10-19T02:03:17.182Z,0
2017-10-19T02:03:57.733Z,0
2017-10-19T02:04:38.252Z,0
2017-10-19T02:05:18.787Z,0
2017-10-19T02:05:59.320Z,0
2017-10-19T02:06:39.858Z,0
2017-10-19T02:07:20.389Z,0
2017-10-19T02:08:00.977Z,0
2017-10-19T02:08:41.509Z,0
2017-10-19T02:09:22.061Z,0
2017-10-19T02:10:02.615Z,0
2017-10-19T02:10:43.126Z,0
2017-10-19T02:11:23.664Z,0
2017-10-19T02:12:04.311Z,0
2017-10-19T02:12:44.740Z,0
2017-10-19T02:13:25.269Z,0
2017-10-19T02:14:05.805Z,0
2017-10-19T02:14:46.427Z,0
2017-10-19T02:15:26.952Z,0
2017-10-19T02:16:07.480Z,0
2017-10-19T02:16:48.020Z,0
2017-10-19T02:17:28.542Z,0
2017-10-19T02:18:09.084Z,0
2017-10-19T02:18:49.626Z,0
2017-10-19T02:19:30.159Z,0
2017-10-19T02:20:10.731Z,0
2017-10-19T02:20:51.238Z,0
2017-10-19T02:21:31.773Z,0
2017-10-19T02:22:12.295Z,0
2017-10-19T02:22:52.829Z,0
2017-10-19T02:23:33.340Z,0
2017-10-19T02:24:13.929Z,0
2017-10-19T02:24:54.462Z,0
2017-10-19T02:25:34.984Z,0
2017-10-19T02:26:15.620Z,0
2017-10-19T02:26:56.149Z,0
2017-10-19T02:27:36.694Z,0
2017-10-19T02:28:17.205Z,0
2017-10-19T02:28:57.748Z,0
2017-10-19T02:29:38.254Z,0
2017-10-19T02:30:18.798Z,0
2017-10-19T02:30:59.328Z,0
2017-10-19T02:31:39.901Z,0
2017-10-19T02:32:20.436Z,0
2017-10-19T02:33:00.948Z,0
2017-10-19T02:33:41.481Z,0
2017-10-19T02:34:22.017Z,0
2017-10-19T02:35:02.578Z,0
2017-10-19T02:35:43.114Z,0
2017-10-19T02:36:23.650Z,0
2017-10-19T02:37:04.190Z,0
2017-10-19T02:37:44.747Z,0
2017-10-19T02:38:25.259Z,0
2017-10-19T02:39:05.793Z,0
2017-10-19T02:39:46.330Z,0
2017-10-19T02:40:26.859Z,0
2017-10-19T02:41:07.405Z,0
2017-10-19T02:41:47.948Z,0
2017-10-19T02:42:28.457Z,0
2017-10-19T02:43:09.019Z,0
2017-10-19T02:43:49.515Z,0
2017-10-19T02:44:30.051Z,0
2017-10-19T02:45:10.589Z,0
2017-10-19T02:45:51.111Z,0
2017-10-19T02:46:31.643Z,0
2017-10-19T02:47:12.179Z,0
2017-10-19T02:47:52.726Z,0
2017-10-19T02:48:33.260Z,0
2017-10-19T02:49:13.795Z,0
2017-10-19T02:49:54.500Z,0
2017-10-19T02:50:35.095Z,0
2017-10-19T02:51:15.657Z,0
2017-10-19T02:51:56.199Z,0
2017-10-19T02:52:36.734Z,0
2017-10-19T02:53:17.269Z,0
2017-10-19T02:53:57.818Z,0
2017-10-19T02:54:38.329Z,0
2017-10-19T02:55:18.870Z,0
2017-10-19T02:55:59.401Z,0
2017-10-19T02:56:39.930Z,0
2017-10-19T02:57:20.462Z,0
2017-10-19T02:58:00.997Z,0
2017-10-19T02:58:41.530Z,0
2017-10-19T02:59:22.066Z,0
2017-10-19T03:00:02.604Z,0
2017-10-19T03:00:43.138Z,0
2017-10-19T03:01:23.674Z,0
2017-10-19T03:02:04.226Z,0
2017-10-19T03:02:44.760Z,0
2017-10-19T03:03:25.309Z,0
2017-10-19T03:04:05.836Z,0
2017-10-19T03:04:46.388Z,0
2017-10-19T03:05:26.924Z,0
2017-10-19T03:06:07.459Z,0
2017-10-19T03:06:47.976Z,0
2017-10-19T03:07:28.510Z,0
2017-10-19T03:08:09.049Z,0
2017-10-19T03:08:49.618Z,0
2017-10-19T03:09:30.154Z,0
2017-10-19T03:10:10.702Z,0
2017-10-19T03:10:51.242Z,0
2017-10-19T03:11:31.782Z,0
2017-10-19T03:12:12.287Z,0
2017-10-19T03:12:52.823Z,0
2017-10-19T03:13:33.362Z,0
2017-10-19T03:14:13.925Z,0
2017-10-19T03:14:54.489Z,0
2017-10-19T03:15:35.072Z,0
2017-10-19T03:16:15.609Z,0
2017-10-19T03:16:56.139Z,0
2017-10-19T03:17:36.699Z,0
2017-10-19T03:18:17.233Z,0
2017-10-19T03:18:57.755Z,0
2017-10-19T03:19:38.307Z,0
2017-10-19T03:20:18.846Z,0
2017-10-19T03:20:59.386Z,0
2017-10-19T03:21:39.918Z,0
2017-10-19T03:22:20.465Z,0
2017-10-19T03:23:01.019Z,0
2017-10-19T03:23:41.549Z,0
2017-10-19T03:24:22.084Z,0
2017-10-19T03:25:02.647Z,0
2017-10-19T03:25:43.170Z,0
2017-10-19T03:26:23.709Z,0
2017-10-19T03:27:04.236Z,0
2017-10-19T03:27:44.763Z,0
2017-10-19T03:28:25.289Z,0
2017-10-19T03:29:05.821Z,0
2017-10-19T03:29:46.355Z,0
2017-10-19T03:30:26.910Z,0
2017-10-19T03:31:07.464Z,0
2017-10-19T03:31:48.001Z,0
2017-10-19T03:32:28.552Z,0
2017-10-19T03:33:09.104Z,0
2017-10-19T03:33:49.617Z,0
2017-10-19T03:34:30.322Z,0
2017-10-19T03:35:10.870Z,0
2017-10-19T03:35:51.402Z,0
2017-10-19T03:36:31.925Z,0
2017-10-19T03:37:12.456Z,0
2017-10-19T03:37:52.990Z,0
2017-10-19T03:38:33.520Z,0
2017-10-19T03:39:14.065Z,0
2017-10-19T03:39:54.567Z,0
2017-10-19T03:40:35.106Z,0
2017-10-19T03:41:16.098Z,0
2017-10-19T03:41:56.929Z,0
2017-10-19T03:42:37.854Z,0
2017-10-19T03:43:18.753Z,0
2017-10-19T03:44:00.208Z,0
2017-10-19T03:44:41.027Z,0
2017-10-19T03:45:21.695Z,0
2017-10-19T03:46:02.231Z,0
2017-10-19T03:46:42.782Z,0
2017-10-19T03:47:25.202Z,0
2017-10-19T03:48:06.830Z,0
2017-10-19T03:48:48.806Z,0
2017-10-19T03:49:31.132Z,0
2017-10-19T03:50:11.707Z,0
2017-10-19T03:50:52.256Z,0
2017-10-19T03:51:32.815Z,0
2017-10-19T03:52:13.345Z,0
2017-10-19T03:52:53.888Z,0
2017-10-19T03:53:34.413Z,0
2017-10-19T03:54:14.944Z,0
2017-10-19T03:54:55.477Z,0
2017-10-19T03:55:36.015Z,0
2017-10-19T03:56:16.554Z,0
2017-10-19T03:56:57.081Z,0
2017-10-19T03:57:37.603Z,0
2017-10-19T03:58:18.139Z,0
2017-10-19T03:58:58.687Z,0
2017-10-19T03:59:39.204Z,0
2017-10-19T04:00:19.805Z,0
2017-10-19T04:01:00.339Z,0
2017-10-19T04:01:40.872Z,0
2017-10-19T04:02:21.426Z,0
2017-10-19T04:03:01.964Z,0
2017-10-19T04:03:42.503Z,0
2017-10-19T04:04:23.034Z,0
2017-10-19T04:05:03.575Z,0
2017-10-19T04:05:44.112Z,0
2017-10-19T04:06:24.647Z,0
2017-10-19T04:07:05.183Z,0
2017-10-19T04:07:45.731Z,0
2017-10-19T04:08:26.259Z,0
2017-10-19T04:09:06.766Z,0
2017-10-19T04:09:47.268Z,0
2017-10-19T04:10:27.807Z,0
2017-10-19T04:11:08.347Z,0
2017-10-19T04:11:48.864Z,0
2017-10-19T04:12:29.397Z,0
2017-10-19T04:13:09.907Z,0
2017-10-19T04:13:50.446Z,0
2017-10-19T04:14:30.957Z,0
2017-10-19T04:15:11.487Z,0
2017-10-19T04:15:52.025Z,0
2017-10-19T04:16:32.560Z,0
2017-10-19T04:17:13.105Z,0
2017-10-19T04:17:53.645Z,0
2017-10-19T04:18:34.168Z,0
2017-10-19T04:19:14.705Z,0
2017-10-19T04:19:55.236Z,0
2017-10-19T04:20:35.780Z,0
2017-10-19T04:21:18.186Z,0
2017-10-19T04:22:00.664Z,0
2017-10-19T04:22:43.091Z,0
2017-10-19T04:23:25.126Z,0
2017-10-19T04:24:07.320Z,0
2017-10-19T04:24:47.855Z,0
2017-10-19T04:25:28.421Z,0
2017-10-19T04:26:08.932Z,0
2017-10-19T04:26:49.443Z,0
2017-10-19T04:27:29.981Z,0
2017-10-19T04:28:10.513Z,0
2017-10-19T04:28:51.035Z,0
2017-10-19T04:29:31.564Z,0
2017-10-19T04:30:12.080Z,0
2017-10-19T04:30:52.607Z,0
2017-10-19T04:31:33.158Z,0
2017-10-19T04:32:13.766Z,0
2017-10-19T04:32:54.284Z,0
2017-10-19T04:33:34.791Z,0
2017-10-19T04:34:15.298Z,0
2017-10-19T04:34:55.813Z,0
2017-10-19T04:35:37.011Z,0
2017-10-19T04:36:19.424Z,0
2017-10-19T04:37:01.647Z,0
2017-10-19T04:37:43.803Z,0
2017-10-19T04:38:24.324Z,0
2017-10-19T04:39:04.871Z,0
2017-10-19T04:39:45.376Z,0
2017-10-19T04:40:25.882Z,0
2017-10-19T04:41:06.419Z,0
2017-10-19T04:41:46.983Z,0
2017-10-19T04:42:27.525Z,0
2017-10-19T04:43:08.051Z,0
2017-10-19T04:43:48.566Z,0
2017-10-19T04:44:29.099Z,0
2017-10-19T04:45:09.636Z,0
2017-10-19T04:45:50.198Z,0
2017-10-19T04:46:30.863Z,0
2017-10-19T04:47:11.426Z,0
2017-10-19T04:47:51.948Z,0
2017-10-19T04:48:32.501Z,0
2017-10-19T04:49:13.050Z,0
2017-10-19T04:49:53.574Z,0
2017-10-19T04:50:34.096Z,0
2017-10-19T04:51:15.724Z,0
2017-10-19T04:51:57.638Z,0
2017-10-19T04:52:40.103Z,0
2017-10-19T04:53:22.656Z,0
2017-10-19T04:54:05.091Z,0
2017-10-19T04:54:46.093Z,0
2017-10-19T04:55:26.636Z,0
2017-10-19T04:56:07.168Z,0
2017-10-19T04:56:47.697Z,0
2017-10-19T04:57:28.205Z,0
2017-10-19T04:58:08.732Z,0
2017-10-19T04:58:50.048Z,0
2017-10-19T04:59:30.563Z,0
2017-10-19T05:00:11.098Z,0
2017-10-19T05:00:51.633Z,0
2017-10-19T05:01:32.167Z,0
2017-10-19T05:02:12.704Z,0
2017-10-19T05:02:53.245Z,0
2017-10-19T05:03:33.787Z,0
2017-10-19T05:04:14.320Z,0
2017-10-19T05:04:54.859Z,0
2017-10-19T05:05:35.396Z,0
2017-10-19T05:06:15.932Z,0
2017-10-19T05:06:56.465Z,0
2017-10-19T05:07:37.106Z,0
2017-10-19T05:08:17.652Z,0
2017-10-19T05:08:58.230Z,0
2017-10-19T05:09:38.766Z,0
2017-10-19T05:10:19.305Z,0
2017-10-19T05:10:59.887Z,0
2017-10-19T05:11:40.411Z,0
2017-10-19T05:12:20.962Z,0
2017-10-19T05:13:01.526Z,0
2017-10-19T05:13:42.053Z,0
2017-10-19T05:14:22.624Z,0
2017-10-19T05:15:03.175Z,0
2017-10-19T05:15:43.725Z,0
2017-10-19T05:16:24.280Z,0
2017-10-19T05:17:04.792Z,0
2017-10-19T05:17:45.328Z,0
2017-10-19T05:18:25.956Z,0
2017-10-19T05:19:06.423Z,0
2017-10-19T05:19:46.945Z,0
2017-10-19T05:20:27.515Z,0
2017-10-19T05:21:08.096Z,0
2017-10-19T05:21:48.621Z,0
2017-10-19T05:22:29.164Z,0
2017-10-19T05:23:09.726Z,0
2017-10-19T05:23:50.268Z,0
2017-10-19T05:24:30.801Z,0
2017-10-19T05:25:11.336Z,0
2017-10-19T05:25:51.860Z,0
2017-10-19T05:26:32.396Z,0
2017-10-19T05:27:12.931Z,0
2017-10-19T05:27:53.454Z,0
2017-10-19T05:28:34.000Z,0
2017-10-19T05:29:14.563Z,0
2017-10-19T05:29:55.102Z,0
2017-10-19T05:30:35.638Z,0
2017-10-19T05:31:16.196Z,0
2017-10-19T05:31:56.747Z,0
2017-10-19T05:32:38.250Z,0
2017-10-19T05:33:18.783Z,0
2017-10-19T05:33:59.351Z,0
2017-10-19T05:34:39.878Z,0
2017-10-19T05:35:20.414Z,0
2017-10-19T05:36:00.948Z,0
2017-10-19T05:36:44.408Z,0
2017-10-19T05:37:24.957Z,0
2017-10-19T05:38:05.474Z,0
2017-10-19T05:38:46.061Z,0
2017-10-19T05:39:27.306Z,0
2017-10-19T05:40:07.851Z,0
2017-10-19T05:40:48.387Z,0
2017-10-19T05:41:28.914Z,0
2017-10-19T05:42:09.427Z,0
2017-10-19T05:42:50.929Z,0
2017-10-19T05:43:31.449Z,0
2017-10-19T05:44:12.029Z,0
2017-10-19T05:44:52.757Z,0
2017-10-19T05:45:33.339Z,0
2017-10-19T05:46:13.869Z,0
2017-10-19T05:46:54.419Z,0
2017-10-19T05:47:34.954Z,0
2017-10-19T05:48:15.480Z,0
2017-10-19T05:48:56.065Z,0
2017-10-19T05:49:36.602Z,0
2017-10-19T05:50:17.105Z,0
2017-10-19T05:50:57.609Z,0
2017-10-19T05:51:38.132Z,0
2017-10-19T05:52:19.418Z,0
2017-10-19T05:52:59.967Z,0
2017-10-19T05:53:40.528Z,0
2017-10-19T05:54:21.009Z,0
2017-10-19T05:55:01.564Z,0
2017-10-19T05:55:42.091Z,0
2017-10-19T05:56:22.634Z,0
2017-10-19T05:57:03.217Z,0
2017-10-19T05:57:43.718Z,0
2017-10-19T05:58:24.284Z,0
2017-10-19T05:59:04.817Z,0
2017-10-19T05:59:45.330Z,0
2017-10-19T06:00:25.855Z,0
2017-10-19T06:01:07.265Z,0
2017-10-19T06:01:47.775Z,0
2017-10-19T06:02:28.303Z,0
2017-10-19T06:03:08.851Z,5
2017-10-19T06:03:49.396Z,5
2017-10-19T06:04:29.900Z,5
2017-10-19T06:05:10.436Z,5
2017-10-19T06:05:50.975Z,5
2017-10-19T06:06:31.517Z,5
2017-10-19T06:07:12.057Z,5
2017-10-19T06:07:52.596Z,5
2017-10-19T06:08:33.114Z,5
2017-10-19T06:09:13.654Z,5
2017-10-19T06:09:54.190Z,5
2017-10-19T06:10:34.740Z,5
2017-10-19T06:11:15.278Z,5
2017-10-19T06:11:55.828Z,5
2017-10-19T06:12:36.387Z,5
2017-10-19T06:13:16.881Z,5
2017-10-19T06:13:57.384Z,5
2017-10-19T06:14:37.998Z,5
2017-10-19T06:15:18.453Z,5
2017-10-19T06:15:59.033Z,10
2017-10-19T06:16:39.527Z,10
2017-10-19T06:17:20.616Z,10
2017-10-19T06:18:01.108Z,10
2017-10-19T06:18:41.610Z,10
2017-10-19T06:19:22.114Z,10
2017-10-19T06:20:02.652Z,10
2017-10-19T06:20:43.222Z,10
2017-10-19T06:21:23.760Z,10
2017-10-19T06:22:04.321Z,10
2017-10-19T06:22:44.863Z,15
2017-10-19T06:23:25.397Z,15
2017-10-19T06:24:05.898Z,15
2017-10-19T06:24:46.399Z,15
2017-10-19T06:25:27.858Z,15
2017-10-19T06:26:08.402Z,15
2017-10-19T06:26:48.874Z,15
2017-10-19T06:27:29.382Z,15
2017-10-19T06:28:09.918Z,15
2017-10-19T06:28:50.370Z,15
2017-10-19T06:29:30.900Z,20
2017-10-19T06:30:11.433Z,20
2017-10-19T06:30:51.957Z,20
2017-10-19T06:31:32.524Z,20
2017-10-19T06:32:13.069Z,25
2017-10-19T06:32:53.667Z,25
2017-10-19T06:33:34.253Z,25
2017-10-19T06:34:14.810Z,25
2017-10-19T06:34:55.365Z,25
2017-10-19T06:35:35.893Z,25
2017-10-19T06:36:16.445Z,25
2017-10-19T06:36:56.965Z,25
2017-10-19T06:37:37.498Z,25
2017-10-19T06:38:18.026Z,25
2017-10-19T06:38:59.398Z,30
2017-10-19T06:39:39.938Z,30
2017-10-19T06:40:20.500Z,30
2017-10-19T06:41:01.083Z,30
2017-10-19T06:41:41.542Z,30
2017-10-19T06:42:22.103Z,35
2017-10-19T06:43:02.606Z,30
2017-10-19T06:43:43.165Z,35
2017-10-19T06:44:23.721Z,35
2017-10-19T06:45:04.250Z,35
2017-10-19T06:45:44.809Z,35
2017-10-19T06:46:25.475Z,35
2017-10-19T06:47:06.540Z,35
2017-10-19T06:47:47.061Z,40
2017-10-19T06:48:27.642Z,35
2017-10-19T06:49:08.225Z,35
2017-10-19T06:49:48.713Z,35
2017-10-19T06:50:29.226Z,35
2017-10-19T06:51:09.757Z,35
2017-10-19T06:51:50.279Z,35
2017-10-19T06:52:30.809Z,35
2017-10-19T06:53:11.344Z,35
2017-10-19T06:53:51.876Z,35
2017-10-19T06:54:32.400Z,35
2017-10-19T06:55:12.927Z,35
2017-10-19T06:55:53.482Z,35
2017-10-19T06:56:34.017Z,40
2017-10-19T06:57:14.553Z,45
2017-10-19T06:57:55.090Z,50
2017-10-19T06:58:35.619Z,50
2017-10-19T06:59:16.149Z,50
2017-10-19T06:59:56.625Z,50
2017-10-19T07:00:37.112Z,50
2017-10-19T07:01:17.655Z,45
2017-10-19T07:01:58.192Z,45
2017-10-19T07:02:38.736Z,45
2017-10-19T07:03:19.257Z,45
2017-10-19T07:03:59.789Z,45
2017-10-19T07:04:40.354Z,45
2017-10-19T07:05:20.874Z,55
2017-10-19T07:06:01.414Z,55
2017-10-19T07:06:41.965Z,60
2017-10-19T07:07:22.516Z,65
2017-10-19T07:08:03.068Z,65
2017-10-19T07:08:43.598Z,70
2017-10-19T07:09:24.096Z,75
2017-10-19T07:10:04.607Z,70
2017-10-19T07:10:45.099Z,60
2017-10-19T07:11:25.623Z,70
2017-10-19T07:12:06.104Z,60
2017-10-19T07:12:46.712Z,55
2017-10-19T07:13:27.195Z,60
2017-10-19T07:14:07.696Z,80
2017-10-19T07:14:48.213Z,80
2017-10-19T07:15:28.749Z,60
2017-10-19T07:16:09.297Z,60
2017-10-19T07:16:49.824Z,65
2017-10-19T07:17:30.309Z,70
2017-10-19T07:18:10.827Z,65
2017-10-19T07:18:51.360Z,70
2017-10-19T07:19:31.914Z,80
2017-10-19T07:20:12.417Z,75
2017-10-19T07:20:52.946Z,80
2017-10-19T07:21:33.482Z,90
2017-10-19T07:22:14.029Z,90
2017-10-19T07:22:54.567Z,85
2017-10-19T07:23:35.096Z,90
2017-10-19T07:24:15.643Z,90
2017-10-19T07:24:56.131Z,90
2017-10-19T07:25:36.671Z,90
2017-10-19T07:26:17.194Z,90
2017-10-19T07:26:57.717Z,95
2017-10-19T07:27:38.252Z,90
2017-10-19T07:28:18.780Z,95
2017-10-19T07:28:59.315Z,105
2017-10-19T07:29:39.827Z,105
2017-10-19T07:30:20.362Z,110
2017-10-19T07:31:00.886Z,95
2017-10-19T07:31:41.443Z,95
2017-10-19T07:32:22.002Z,100
2017-10-19T07:33:02.591Z,110
2017-10-19T07:33:43.119Z,125
2017-10-19T07:34:23.640Z,135
2017-10-19T07:35:04.209Z,125
2017-10-19T07:35:44.748Z,130
2017-10-19T07:36:25.335Z,125
2017-10-19T07:37:05.837Z,130
2017-10-19T07:37:46.318Z,135
2017-10-19T07:38:26.850Z,135
2017-10-19T07:39:07.377Z,155
2017-10-19T07:39:47.849Z,150
2017-10-19T07:40:28.367Z,165
2017-10-19T07:41:08.859Z,155
2017-10-19T07:41:49.331Z,175
2017-10-19T07:42:29.859Z,160
2017-10-19T07:43:10.355Z,155
2017-10-19T07:43:50.844Z,165
2017-10-19T07:44:31.391Z,165
2017-10-19T07:45:11.888Z,185
2017-10-19T07:45:52.383Z,160
2017-10-19T07:46:32.900Z,180
2017-10-19T07:47:13.383Z,160
2017-10-19T07:47:53.999Z,185
2017-10-19T07:48:34.491Z,200
2017-10-19T07:49:14.980Z,170
2017-10-19T07:49:55.482Z,165
2017-10-19T07:50:36.080Z,190
2017-10-19T07:51:16.556Z,185
2017-10-19T07:51:57.039Z,160
2017-10-19T07:52:37.578Z,200
2017-10-19T07:53:18.115Z,150
2017-10-19T07:53:58.638Z,150
2017-10-19T07:54:39.173Z,150
2017-10-19T07:55:19.705Z,170
2017-10-19T07:56:00.244Z,175
2017-10-19T07:56:40.776Z,145
2017-10-19T07:57:21.332Z,150
2017-10-19T07:58:01.934Z,160
2017-10-19T07:58:42.582Z,130
2017-10-19T07:59:23.133Z,140
2017-10-19T08:00:03.652Z,155
2017-10-19T08:00:44.200Z,175
2017-10-19T08:01:24.697Z,135
2017-10-19T08:02:05.210Z,160
2017-10-19T08:02:45.683Z,145
2017-10-19T08:03:26.210Z,165
2017-10-19T08:04:06.738Z,145
2017-10-19T08:04:47.275Z,140
2017-10-19T08:05:27.816Z,140
2017-10-19T08:06:08.323Z,145
2017-10-19T08:06:48.850Z,145
2017-10-19T08:07:29.377Z,150
2017-10-19T08:08:09.906Z,145
2017-10-19T08:08:50.425Z,150
2017-10-19T08:09:30.940Z,150
2017-10-19T08:10:11.461Z,150
2017-10-19T08:10:51.994Z,155
2017-10-19T08:11:32.515Z,150
2017-10-19T08:12:13.114Z,150
2017-10-19T08:12:53.613Z,155
2017-10-19T08:13:34.145Z,150
2017-10-19T08:14:14.606Z,155
2017-10-19T08:14:55.132Z,150
2017-10-19T08:15:35.618Z,170
2017-10-19T08:16:16.153Z,160
2017-10-19T08:16:56.655Z,155
2017-10-19T08:17:37.193Z,165
2017-10-19T08:18:17.684Z,205
2017-10-19T08:18:58.218Z,240
2017-10-19T08:19:38.714Z,235
2017-10-19T08:20:19.265Z,170
2017-10-19T08:20:59.747Z,165
2017-10-19T08:21:40.265Z,200
2017-10-19T08:22:20.738Z,245
2017-10-19T08:23:01.253Z,315
2017-10-19T08:23:41.772Z,415
2017-10-19T08:24:22.281Z,415
2017-10-19T08:25:02.805Z,300
2017-10-19T08:25:43.317Z,190
2017-10-19T08:26:23.815Z,165
2017-10-19T08:27:04.338Z,170
2017-10-19T08:27:44.812Z,165
2017-10-19T08:28:25.315Z,190
2017-10-19T08:29:05.820Z,295
2017-10-19T08:29:46.344Z,325
2017-10-19T08:30:26.812Z,280
2017-10-19T08:31:07.354Z,195
2017-10-19T08:31:47.855Z,180
2017-10-19T08:32:28.358Z,175
2017-10-19T08:33:08.949Z,175
2017-10-19T08:33:49.449Z,180
2017-10-19T08:34:30.001Z,185
2017-10-19T08:35:10.510Z,195
2017-10-19T08:35:50.987Z,200
2017-10-19T08:36:31.501Z,205
2017-10-19T08:37:12.005Z,195
2017-10-19T08:37:52.559Z,185
2017-10-19T08:38:33.118Z,190
2017-10-19T08:39:13.575Z,190
2017-10-19T08:39:54.101Z,190
2017-10-19T08:40:34.640Z,190
2017-10-19T08:41:15.196Z,195
2017-10-19T08:41:55.845Z,195
2017-10-19T08:42:36.259Z,200
2017-10-19T08:43:16.800Z,200
2017-10-19T08:43:57.338Z,200
2017-10-19T08:44:37.863Z,205
2017-10-19T08:45:18.422Z,210
2017-10-19T08:45:58.966Z,210
2017-10-19T08:46:39.485Z,210
2017-10-19T08:47:20.040Z,215
2017-10-19T08:48:00.586Z,215
2017-10-19T08:48:41.114Z,215
2017-10-19T08:49:21.651Z,220
2017-10-19T08:50:02.180Z,225
2017-10-19T08:50:42.736Z,225
2017-10-19T08:51:23.265Z,225
2017-10-19T08:52:03.802Z,230
2017-10-19T08:52:44.366Z,235
2017-10-19T08:53:24.903Z,240
2017-10-19T08:54:05.423Z,240
2017-10-19T08:54:45.945Z,245
2017-10-19T08:55:26.478Z,250
2017-10-19T08:56:07.015Z,255
2017-10-19T08:56:47.551Z,260
2017-10-19T08:57:28.083Z,265
2017-10-19T08:58:08.584Z,265
2017-10-19T08:58:49.220Z,270
2017-10-19T08:59:29.726Z,270
2017-10-19T09:00:10.258Z,275
2017-10-19T09:00:50.797Z,285
2017-10-19T09:01:31.324Z,305
2017-10-19T09:02:11.852Z,310
2017-10-19T09:02:52.379Z,330
2017-10-19T09:03:32.912Z,345
2017-10-19T09:04:13.449Z,370
2017-10-19T09:04:53.989Z,420
2017-10-19T09:05:34.551Z,500
2017-10-19T09:06:15.934Z,605
2017-10-19T09:06:56.477Z,700
2017-10-19T09:07:37.009Z,820
2017-10-19T09:08:17.563Z,905
2017-10-19T09:08:58.109Z,945
2017-10-19T09:09:38.650Z,995
2017-10-19T09:10:19.201Z,1040
2017-10-19T09:10:59.765Z,1070
2017-10-19T09:11:40.304Z,1110
2017-10-19T09:12:20.842Z,1125
2017-10-19T09:13:01.382Z,1150
2017-10-19T09:13:41.908Z,1165
2017-10-19T09:14:22.443Z,1170
2017-10-19T09:15:02.995Z,1185
2017-10-19T09:15:43.538Z,1205
2017-10-19T09:16:24.075Z,1185
2017-10-19T09:17:04.622Z,1190
2017-10-19T09:17:45.168Z,1205
2017-10-19T09:18:25.706Z,1215
2017-10-19T09:19:06.236Z,1175
2017-10-19T09:19:46.780Z,1145
2017-10-19T09:20:27.321Z,1145
2017-10-19T09:21:07.864Z,1160
2017-10-19T09:21:48.402Z,1190
2017-10-19T09:22:28.947Z,1220
2017-10-19T09:23:09.544Z,1245
2017-10-19T09:23:50.079Z,1270
2017-10-19T09:24:30.621Z,1310
2017-10-19T09:25:11.196Z,1290
2017-10-19T09:25:51.729Z,1255
2017-10-19T09:26:32.267Z,1260
2017-10-19T09:27:12.808Z,1235
2017-10-19T09:27:53.343Z,1245
2017-10-19T09:28:33.895Z,1255
2017-10-19T09:29:14.422Z,1225
2017-10-19T09:29:54.968Z,1205
2017-10-19T09:30:35.500Z,1230
2017-10-19T09:31:16.041Z,1230
2017-10-19T09:31:56.584Z,1255
2017-10-19T09:32:37.127Z,1245
2017-10-19T09:33:17.668Z,1220
2017-10-19T09:33:58.208Z,1260
2017-10-19T09:34:38.748Z,1315
2017-10-19T09:35:19.285Z,1335
2017-10-19T09:35:59.854Z,1315
2017-10-19T09:36:40.431Z,1190
2017-10-19T09:37:20.956Z,1235
2017-10-19T09:38:01.490Z,1230
2017-10-19T09:38:42.044Z,1245
2017-10-19T09:39:22.585Z,1250
2017-10-19T09:40:03.136Z,1260
2017-10-19T09:40:43.671Z,1255
2017-10-19T09:41:24.226Z,1315
2017-10-19T09:42:04.778Z,1305
2017-10-19T09:42:45.323Z,1305
2017-10-19T09:43:25.950Z,1260
2017-10-19T09:44:06.493Z,1290
2017-10-19T09:44:47.035Z,1325
2017-10-19T09:45:27.579Z,1345
2017-10-19T09:46:08.155Z,1440